Météo Nord-Pas-de-Calais   La météo au plus près de chez vous

Station météorologique

Observations météo à Tusson (16390)

16390001 88 m Dernier relevé à 09:00
14.9°C
Humidité 100 % Vent 0 km/h

Journée consultée

Mardi 1 Septembre 2026

Synthèse de la journée

Périodes de référence en UTC

Température maximale

14.9°C

à 09:00

06h 06h

Température minimale

9.9°C

à 07:00

18h 18h

Rafale maximale

7 km/h

à 02:06

00h 00h

Précipitations

0 mm

Cumul quotidien

06h 06h

Graphiques de la journée

Heure locale Réduire

Données détaillées

Relevés météo

Pas de 6 minutes Afficher les relevés infra-horaires
Relevés météo détaillés à Tusson pour le Mardi 1 Septembre 2026
Heure Température °C Point de rosée °C Humidité % Vent moyen (raf.), km/h Précipitations mm
09:00 14.9 °C 14.7 °C 99 % 0 km/h (3 km/h) 0 mm0 mm
08:54 14.6 °C 14.6 °C 100 % 0 km/h (4 km/h) 0 mm0 mm
08:48 14 °C 14 °C 100 % 2 km/h (4 km/h) 0 mm0 mm
08:42 13.9 °C 13.9 °C 100 % 2 km/h (4 km/h) 0 mm0 mm
08:36 13.3 °C 13.3 °C 100 % 0 km/h (3 km/h) 0 mm0 mm
08:30 12.8 °C 12.8 °C 100 % 0 km/h (3 km/h) 0 mm0 mm
08:24 12.1 °C 12.1 °C 100 % 0 km/h (2 km/h) 0 mm0 mm
08:18 11.7 °C 11.7 °C 100 % 0 km/h (2 km/h) 0 mm0 mm
08:12 11.7 °C 11.7 °C 100 % 0 km/h (2 km/h) 0 mm0 mm
08:06 11.3 °C 11.3 °C 100 % 0 km/h (3 km/h) 0 mm0 mm
08:00 10.6 °C 10.6 °C 100 % 0 km/h (3 km/h) 0 mm0 mm
07:54 10.4 °C 10.2 °C 99 % 0 km/h (3 km/h) 0 mm0 mm
07:48 10.3 °C 10.1 °C 99 % 2 km/h (3 km/h) 0 mm0 mm
07:42 10.2 °C 10 °C 99 % 2 km/h (3 km/h) 0 mm0 mm
07:36 10.3 °C 10.1 °C 99 % 3 km/h (4 km/h) 0 mm0 mm
07:30 10.3 °C 10.1 °C 99 % 3 km/h (4 km/h) 0 mm0 mm
07:24 10.3 °C 10.1 °C 99 % 4 km/h (5 km/h) 0 mm0 mm
07:18 10.2 °C 10 °C 99 % 4 km/h (5 km/h) 0 mm0 mm
07:12 10 °C 9.8 °C 99 % 3 km/h (5 km/h) 0 mm0 mm
07:06 9.9 °C 9.7 °C 99 % 3 km/h (4 km/h) 0 mm0 mm
07:00 9.9 °C 9.7 °C 99 % 2 km/h (4 km/h) 0 mm0 mm
06:54 10 °C 9.8 °C 99 % 0 km/h (3 km/h) 0 mm0 mm
06:48 10 °C 9.7 °C 98 % 0 km/h (0 km/h) 0 mm0 mm
06:42 10.1 °C 9.8 °C 98 % 0 km/h (2 km/h) 0 mm0 mm
06:36 10 °C 9.7 °C 98 % 2 km/h (3 km/h) 0 mm0 mm
06:30 10.7 °C 10.5 °C 99 % 3 km/h (3 km/h) 0 mm0 mm
06:24 10.5 °C 10.3 °C 99 % 2 km/h (3 km/h) 0 mm0 mm
06:18 10.5 °C 10.3 °C 99 % 2 km/h (3 km/h) 0 mm0 mm
06:12 10.5 °C 10.2 °C 98 % 2 km/h (3 km/h) 0 mm0 mm
06:06 10.5 °C 10.2 °C 98 % 0 km/h (3 km/h) 0 mm0 mm
06:00 10.4 °C 10.1 °C 98 % 0 km/h (3 km/h) 0 mm0 mm
05:54 10.5 °C 10.2 °C 98 % 0 km/h (3 km/h) 0 mm0 mm
05:48 10.6 °C 10.3 °C 98 % 0 km/h (3 km/h) 0 mm0 mm
05:42 10.4 °C 9.9 °C 97 % 0 km/h (2 km/h) 0 mm0 mm
05:36 10.5 °C 10 °C 97 % 0 km/h (0 km/h) 0 mm0 mm
05:30 10.5 °C 9.9 °C 96 % 0 km/h (0 km/h) 0 mm0 mm
05:24 10.7 °C 10.2 °C 97 % 0 km/h (0 km/h) 0 mm0 mm
05:18 10.9 °C 10.4 °C 97 % 0 km/h (0 km/h) 0 mm0 mm
05:12 11 °C 10.5 °C 97 % 0 km/h (0 km/h) 0 mm0 mm
05:06 11.1 °C 10.6 °C 97 % 0 km/h (0 km/h) 0 mm0 mm
05:00 11.4 °C 11.1 °C 98 % 0 km/h (3 km/h) 0 mm0 mm
04:54 11.6 °C 11.3 °C 98 % 2 km/h (3 km/h) 0 mm0 mm
04:48 11.3 °C 10.8 °C 97 % 2 km/h (3 km/h) 0 mm0 mm
04:42 11.5 °C 11 °C 97 % 0 km/h (3 km/h) 0 mm0 mm
04:36 11.5 °C 11 °C 97 % 0 km/h (3 km/h) 0 mm0 mm
04:30 11.8 °C 11.5 °C 98 % 2 km/h (3 km/h) 0 mm0 mm
04:24 11.8 °C 11.5 °C 98 % 3 km/h (5 km/h) 0 mm0 mm
04:18 11.7 °C 11.2 °C 97 % 3 km/h (5 km/h) 0 mm0 mm
04:12 11.6 °C 11 °C 96 % 0 km/h (3 km/h) 0 mm0 mm
04:06 12.2 °C 11.7 °C 97 % 2 km/h (3 km/h) 0 mm0 mm
04:00 12.3 °C 12 °C 98 % 0 km/h (3 km/h) 0 mm0 mm
03:54 12.4 °C 12.1 °C 98 % 0 km/h (2 km/h) 0 mm0 mm
03:48 12.4 °C 11.9 °C 97 % 0 km/h (3 km/h) 0 mm0 mm
03:42 12.4 °C 11.9 °C 97 % 2 km/h (3 km/h) 0 mm0 mm
03:36 12.2 °C 11.6 °C 96 % 2 km/h (3 km/h) 0 mm0 mm
03:30 12.2 °C 11.6 °C 96 % 0 km/h (3 km/h) 0 mm0 mm
03:24 12.5 °C 11.9 °C 96 % 0 km/h (3 km/h) 0 mm0 mm
03:18 12.5 °C 11.7 °C 95 % 0 km/h (3 km/h) 0 mm0 mm
03:12 12.9 °C 12.4 °C 97 % 0 km/h (2 km/h) 0 mm0 mm
03:06 12.8 °C 12.2 °C 96 % 0 km/h (0 km/h) 0 mm0 mm
03:00 12.9 °C 12.1 °C 95 % 0 km/h (0 km/h) 0 mm0.2 mm
02:54 13 °C 12.2 °C 95 % 0 km/h (4 km/h) 0.2 mm0 mm
02:48 13 °C 12.1 °C 94 % 2 km/h (4 km/h) 0 mm0 mm
02:42 13.3 °C 12.5 °C 95 % 0 km/h (3 km/h) 0 mm0 mm
02:36 13.7 °C 13.1 °C 96 % 0 km/h (4 km/h) 0 mm0 mm
02:30 13.8 °C 13.2 °C 96 % 0 km/h (4 km/h) 0 mm0 mm
02:24 14 °C 13.4 °C 96 % 2 km/h (4 km/h) 0 mm0 mm
02:18 14 °C 13.5 °C 97 % 3 km/h (6 km/h) 0 mm0 mm
02:12 13.8 °C 13 °C 95 % 4 km/h (6 km/h) 0 mm0 mm
02:06 14 °C 13.4 °C 96 % 4 km/h (7 km/h) 0 mm0 mm
02:00 13.8 °C 12.9 °C 94 % 3 km/h (5 km/h) 0 mm0 mm
01:54 14.1 °C 13.1 °C 94 % 2 km/h (5 km/h) 0 mm0 mm
01:48 14.5 °C 13.7 °C 95 % 4 km/h (8 km/h) 0 mm0 mm
01:42 14.6 °C 13.8 °C 95 % 6 km/h (9 km/h) 0 mm0 mm
01:36 14.7 °C 13.7 °C 94 % 7 km/h (10 km/h) 0 mm0 mm
01:30 14.7 °C 13.7 °C 94 % 7 km/h (11 km/h) 0 mm0 mm
01:24 14.8 °C 13.8 °C 94 % 8 km/h (11 km/h) 0 mm0 mm
01:18 15 °C 14.2 °C 95 % 9 km/h (13 km/h) 0 mm0 mm
01:12 15.1 °C 14.3 °C 95 % 10 km/h (15 km/h) 0 mm0 mm
01:06 15.1 °C 14.5 °C 96 % 10 km/h (15 km/h) 0 mm0 mm
01:00 15 °C 14.5 °C 97 % 9 km/h (14 km/h) 0 mm0 mm
00:54 14.7 °C 14.1 °C 96 % 8 km/h (12 km/h) 0 mm0 mm
00:48 14.6 °C 14 °C 96 % 7 km/h (10 km/h) 0 mm0 mm
00:42 14.5 °C 13.7 °C 95 % 6 km/h (8 km/h) 0 mm0 mm
00:36 14.5 °C 13.5 °C 94 % 7 km/h (9 km/h) 0 mm0 mm
00:30 14.6 °C 13.6 °C 94 % 7 km/h (9 km/h) 0 mm0 mm
00:24 14.8 °C 13.7 °C 93 % 7 km/h (8 km/h) 0 mm0 mm
00:18 15 °C 13.9 °C 93 % 8 km/h (10 km/h) 0 mm0 mm
00:12 15.2 °C 14.1 °C 93 % 8 km/h (10 km/h) 0 mm0 mm
00:06 15.4 °C 14.4 °C 94 % 7 km/h (9 km/h) 0 mm0 mm
00:00 15.5 °C 14.5 °C 94 % 7 km/h (9 km/h) 0 mm0 mm

Données via Météo-France

Relevés météo à Tusson

Cette page rassemble les observations de la station de Tusson : température, humidité, vent, précipitations et pression atmosphérique. Les graphiques facilitent le suivi de la journée, tandis que le tableau donne accès aux mesures horaires et infra-horaires disponibles.

Pour replacer ces mesures dans leur contexte, consultez la climatologie de Tusson ainsi que ses normales et records. Retrouvez aussi la carte des observations météo en temps réel.